sensor_id;sensor_type;location;lat;lon;timestamp;pressure;altitude;pressure_sealevel;temperature;humidity
55757;BME280;41676;44.610;44.078;2023-02-18T00:00:27;100817.31;;;-1.19;93.03
55757;BME280;41676;44.610;44.078;2023-02-18T00:05:28;100791.41;;;-1.38;92.47
55757;BME280;41676;44.610;44.078;2023-02-18T00:10:29;100797.94;;;-1.30;92.36
55757;BME280;41676;44.610;44.078;2023-02-18T00:15:30;100790.66;;;-1.24;91.78
55757;BME280;41676;44.610;44.078;2023-02-18T00:20:31;100765.44;;;-1.56;92.22
55757;BME280;41676;44.610;44.078;2023-02-18T00:25:33;100772.38;;;-1.40;92.24
55757;BME280;41676;44.610;44.078;2023-02-18T00:30:33;100783.31;;;-1.33;92.26
55757;BME280;41676;44.610;44.078;2023-02-18T00:35:34;100769.00;;;-1.42;92.02
55757;BME280;41676;44.610;44.078;2023-02-18T00:40:39;100695.94;;;-1.89;92.61
55757;BME280;41676;44.610;44.078;2023-02-18T00:45:39;100796.97;;;-1.28;92.67
55757;BME280;41676;44.610;44.078;2023-02-18T00:50:40;100791.28;;;-1.36;92.42
55757;BME280;41676;44.610;44.078;2023-02-18T00:55:42;100785.56;;;-1.43;92.02
55757;BME280;41676;44.610;44.078;2023-02-18T01:00:43;100771.16;;;-1.50;92.11
55757;BME280;41676;44.610;44.078;2023-02-18T01:05:45;100777.31;;;-1.51;92.36
55757;BME280;41676;44.610;44.078;2023-02-18T01:10:47;100737.63;;;-1.56;92.54
55757;BME280;41676;44.610;44.078;2023-02-18T01:15:49;100744.88;;;-1.45;92.51
55757;BME280;41676;44.610;44.078;2023-02-18T01:20:50;100753.63;;;-1.46;91.97
55757;BME280;41676;44.610;44.078;2023-02-18T01:25:51;100740.75;;;-1.49;91.88
55757;BME280;41676;44.610;44.078;2023-02-18T01:30:52;100699.19;;;-1.68;92.21
55757;BME280;41676;44.610;44.078;2023-02-18T01:35:53;100677.97;;;-1.94;92.04
55757;BME280;41676;44.610;44.078;2023-02-18T01:40:54;100715.50;;;-1.65;93.19
55757;BME280;41676;44.610;44.078;2023-02-18T01:46:06;100661.72;;;-1.81;94.05
55757;BME280;41676;44.610;44.078;2023-02-18T01:51:12;100711.50;;;-1.39;92.82
55757;BME280;41676;44.610;44.078;2023-02-18T01:56:21;100622.38;;;-1.93;92.26
55757;BME280;41676;44.610;44.078;2023-02-18T02:01:22;100623.63;;;-2.00;92.86
55757;BME280;41676;44.610;44.078;2023-02-18T02:06:25;100733.22;;;-1.22;92.48
55757;BME280;41676;44.610;44.078;2023-02-18T02:27:20;100715.22;;;-1.43;91.60
55757;BME280;41676;44.610;44.078;2023-02-18T02:38:15;100727.47;;;-1.29;91.84
55757;BME280;41676;44.610;44.078;2023-02-18T02:54:18;100728.34;;;-1.12;91.53
55757;BME280;41676;44.610;44.078;2023-02-18T02:59:21;100732.72;;;-1.13;91.01
55757;BME280;41676;44.610;44.078;2023-02-18T03:04:43;100709.16;;;-1.11;90.88
55757;BME280;41676;44.610;44.078;2023-02-18T03:10:04;100655.94;;;-1.55;90.74
55757;BME280;41676;44.610;44.078;2023-02-18T03:15:40;100693.00;;;-1.50;90.84
55757;BME280;41676;44.610;44.078;2023-02-18T03:26:01;100694.69;;;-1.49;90.96
55757;BME280;41676;44.610;44.078;2023-02-18T03:31:08;100698.81;;;-1.45;91.24
55757;BME280;41676;44.610;44.078;2023-02-18T03:36:10;100712.69;;;-1.44;90.83
55757;BME280;41676;44.610;44.078;2023-02-18T03:41:12;100713.13;;;-1.36;90.14
55757;BME280;41676;44.610;44.078;2023-02-18T03:46:13;100710.84;;;-1.42;90.18
55757;BME280;41676;44.610;44.078;2023-02-18T03:51:14;100695.03;;;-1.55;89.85
55757;BME280;41676;44.610;44.078;2023-02-18T03:56:15;100625.22;;;-1.97;90.34
55757;BME280;41676;44.610;44.078;2023-02-18T04:01:16;100702.06;;;-1.57;90.11
55757;BME280;41676;44.610;44.078;2023-02-18T04:06:17;100699.97;;;-1.66;90.00
55757;BME280;41676;44.610;44.078;2023-02-18T04:11:17;100725.03;;;-1.48;90.31
55757;BME280;41676;44.610;44.078;2023-02-18T04:16:18;100716.13;;;-1.44;90.44
55757;BME280;41676;44.610;44.078;2023-02-18T04:21:19;100713.69;;;-1.47;90.39
55757;BME280;41676;44.610;44.078;2023-02-18T04:26:20;100701.19;;;-1.40;89.91
55757;BME280;41676;44.610;44.078;2023-02-18T04:31:21;100700.75;;;-1.32;89.63
55757;BME280;41676;44.610;44.078;2023-02-18T04:36:21;100711.94;;;-1.30;89.66
55757;BME280;41676;44.610;44.078;2023-02-18T04:41:22;100718.09;;;-1.16;89.63
55757;BME280;41676;44.610;44.078;2023-02-18T04:46:23;100686.31;;;-1.22;89.35
55757;BME280;41676;44.610;44.078;2023-02-18T04:51:24;100738.25;;;-0.87;89.22
55757;BME280;41676;44.610;44.078;2023-02-18T05:08:22;100684.88;;;-0.66;89.02
55757;BME280;41676;44.610;44.078;2023-02-18T05:13:23;100695.25;;;-0.64;87.56
55757;BME280;41676;44.610;44.078;2023-02-18T05:18:23;100740.56;;;-0.35;87.49
55757;BME280;41676;44.610;44.078;2023-02-18T05:23:24;100622.34;;;-0.98;86.63
55757;BME280;41676;44.610;44.078;2023-02-18T05:28:25;100654.63;;;-0.84;86.67
55757;BME280;41676;44.610;44.078;2023-02-18T05:33:26;100710.25;;;-0.38;86.16
55757;BME280;41676;44.610;44.078;2023-02-18T05:38:26;100692.72;;;-0.36;85.39
55757;BME280;41676;44.610;44.078;2023-02-18T05:43:27;100736.25;;;0.08;85.24
55757;BME280;41676;44.610;44.078;2023-02-18T05:48:28;100594.69;;;-0.70;84.91
55757;BME280;41676;44.610;44.078;2023-02-18T05:53:29;100695.66;;;-0.12;84.74
55757;BME280;41676;44.610;44.078;2023-02-18T05:58:30;100730.47;;;0.17;84.79
55757;BME280;41676;44.610;44.078;2023-02-18T06:03:31;100681.03;;;-0.14;84.79
55757;BME280;41676;44.610;44.078;2023-02-18T06:08:31;100686.16;;;0.02;84.64
55757;BME280;41676;44.610;44.078;2023-02-18T06:13:32;100724.34;;;0.47;84.21
55757;BME280;41676;44.610;44.078;2023-02-18T06:18:33;100712.66;;;0.53;84.19
55757;BME280;41676;44.610;44.078;2023-02-18T06:23:34;100717.38;;;0.75;83.63
55757;BME280;41676;44.610;44.078;2023-02-18T06:28:35;100704.69;;;0.68;83.73
55757;BME280;41676;44.610;44.078;2023-02-18T06:33:35;100530.41;;;0.01;82.59
55757;BME280;41676;44.610;44.078;2023-02-18T06:38:38;100696.06;;;1.22;81.88
55757;BME280;41676;44.610;44.078;2023-02-18T06:43:39;100683.16;;;1.19;81.42
55757;BME280;41676;44.610;44.078;2023-02-18T06:48:40;100620.91;;;0.57;81.81
55757;BME280;41676;44.610;44.078;2023-02-18T06:53:42;100688.75;;;1.00;82.04
55757;BME280;41676;44.610;44.078;2023-02-18T06:58:43;100684.06;;;1.32;81.04
55757;BME280;41676;44.610;44.078;2023-02-18T07:03:44;100689.44;;;1.44;80.96
55757;BME280;41676;44.610;44.078;2023-02-18T07:08:45;100680.81;;;1.29;80.43
55757;BME280;41676;44.610;44.078;2023-02-18T07:13:45;100702.78;;;1.79;80.02
55757;BME280;41676;44.610;44.078;2023-02-18T07:18:46;100707.53;;;1.99;79.61
55757;BME280;41676;44.610;44.078;2023-02-18T07:23:47;100654.81;;;2.04;78.24
55757;BME280;41676;44.610;44.078;2023-02-18T07:28:48;100681.75;;;2.19;77.70
55757;BME280;41676;44.610;44.078;2023-02-18T07:33:48;100718.41;;;2.57;77.49
55757;BME280;41676;44.610;44.078;2023-02-18T07:38:49;100672.72;;;2.48;76.73
55757;BME280;41676;44.610;44.078;2023-02-18T07:43:50;100688.00;;;2.55;76.89
55757;BME280;41676;44.610;44.078;2023-02-18T07:48:50;100685.38;;;2.91;75.56
55757;BME280;41676;44.610;44.078;2023-02-18T07:53:51;100657.47;;;2.90;75.21
55757;BME280;41676;44.610;44.078;2023-02-18T07:58:52;100699.34;;;3.16;74.34
55757;BME280;41676;44.610;44.078;2023-02-18T08:03:53;100672.19;;;3.04;74.21
55757;BME280;41676;44.610;44.078;2023-02-18T08:08:53;100664.22;;;3.30;74.27
55757;BME280;41676;44.610;44.078;2023-02-18T08:13:54;100671.06;;;3.43;73.11
55757;BME280;41676;44.610;44.078;2023-02-18T08:18:55;100649.19;;;3.08;73.21
55757;BME280;41676;44.610;44.078;2023-02-18T08:23:57;100605.47;;;2.71;73.59
55757;BME280;41676;44.610;44.078;2023-02-18T08:39:19;100575.84;;;2.58;73.07
55757;BME280;41676;44.610;44.078;2023-02-18T08:44:20;100628.19;;;2.60;73.33
55757;BME280;41676;44.610;44.078;2023-02-18T08:49:21;100596.59;;;2.37;73.97
55757;BME280;41676;44.610;44.078;2023-02-18T08:54:23;100549.22;;;2.15;73.70
55757;BME280;41676;44.610;44.078;2023-02-18T08:59:24;100566.50;;;2.54;73.68
55757;BME280;41676;44.610;44.078;2023-02-18T09:04:25;100488.72;;;2.18;73.55
55757;BME280;41676;44.610;44.078;2023-02-18T09:09:26;100476.09;;;2.36;73.63
55757;BME280;41676;44.610;44.078;2023-02-18T09:14:27;100543.72;;;3.03;72.65
55757;BME280;41676;44.610;44.078;2023-02-18T09:19:28;100467.81;;;2.53;73.18
55757;BME280;41676;44.610;44.078;2023-02-18T09:24:28;100547.50;;;2.98;72.87
55757;BME280;41676;44.610;44.078;2023-02-18T09:29:29;100570.09;;;3.48;72.31
55757;BME280;41676;44.610;44.078;2023-02-18T09:34:30;100544.56;;;3.83;71.85
55757;BME280;41676;44.610;44.078;2023-02-18T09:39:31;100442.59;;;3.32;71.32
55757;BME280;41676;44.610;44.078;2023-02-18T09:44:42;100481.63;;;3.59;70.04
55757;BME280;41676;44.610;44.078;2023-02-18T09:49:47;100568.06;;;4.19;69.91
55757;BME280;41676;44.610;44.078;2023-02-18T09:54:52;100547.31;;;4.04;69.80
55757;BME280;41676;44.610;44.078;2023-02-18T09:59:59;100557.69;;;4.61;69.88
55757;BME280;41676;44.610;44.078;2023-02-18T10:05:01;100471.50;;;4.21;69.51
55757;BME280;41676;44.610;44.078;2023-02-18T10:10:17;100509.34;;;4.73;67.76
55757;BME280;41676;44.610;44.078;2023-02-18T10:15:23;100528.81;;;5.02;68.34
55757;BME280;41676;44.610;44.078;2023-02-18T10:20:28;100449.06;;;4.49;68.34
55757;BME280;41676;44.610;44.078;2023-02-18T10:25:30;100418.00;;;4.10;68.68
55757;BME280;41676;44.610;44.078;2023-02-18T10:30:45;100475.50;;;4.36;68.40
55757;BME280;41676;44.610;44.078;2023-02-18T10:41:37;100508.22;;;4.11;69.19
55757;BME280;41676;44.610;44.078;2023-02-18T10:52:15;100446.59;;;3.93;69.16
55757;BME280;41676;44.610;44.078;2023-02-18T10:57:19;100473.41;;;4.19;68.92
55757;BME280;41676;44.610;44.078;2023-02-18T11:02:23;100482.53;;;4.03;68.46
55757;BME280;41676;44.610;44.078;2023-02-18T11:07:30;100437.81;;;3.60;69.30
55757;BME280;41676;44.610;44.078;2023-02-18T11:12:59;100473.25;;;3.77;69.78
55757;BME280;41676;44.610;44.078;2023-02-18T11:18:13;100453.56;;;3.71;69.52
55757;BME280;41676;44.610;44.078;2023-02-18T11:23:23;100448.31;;;3.71;69.70
55757;BME280;41676;44.610;44.078;2023-02-18T11:28:44;100455.94;;;3.74;69.45
55757;BME280;41676;44.610;44.078;2023-02-18T11:33:51;100456.31;;;3.58;70.34
55757;BME280;41676;44.610;44.078;2023-02-18T11:39:19;100343.66;;;2.99;69.85
55757;BME280;41676;44.610;44.078;2023-02-18T11:44:23;100445.94;;;3.46;69.92
55757;BME280;41676;44.610;44.078;2023-02-18T11:49:27;100430.41;;;3.42;69.91
55757;BME280;41676;44.610;44.078;2023-02-18T11:54:30;100447.97;;;3.53;69.98
55757;BME280;41676;44.610;44.078;2023-02-18T11:59:34;100439.38;;;3.62;69.64
55757;BME280;41676;44.610;44.078;2023-02-18T12:04:42;100429.34;;;3.45;69.59
55757;BME280;41676;44.610;44.078;2023-02-18T12:09:48;100425.25;;;3.52;69.40
55757;BME280;41676;44.610;44.078;2023-02-18T12:14:53;100398.78;;;3.44;68.83
55757;BME280;41676;44.610;44.078;2023-02-18T12:20:51;100432.66;;;3.81;68.68
55757;BME280;41676;44.610;44.078;2023-02-18T12:25:48;100422.72;;;3.73;68.58
55757;BME280;41676;44.610;44.078;2023-02-18T12:41:58;100408.47;;;3.32;69.84
55757;BME280;41676;44.610;44.078;2023-02-18T12:52:35;100401.75;;;3.17;69.74
55757;BME280;41676;44.610;44.078;2023-02-18T12:57:53;100404.72;;;3.01;69.94
55757;BME280;41676;44.610;44.078;2023-02-18T13:13:41;100202.28;;;1.71;70.08
55757;BME280;41676;44.610;44.078;2023-02-18T13:29:40;100374.81;;;2.35;70.88
55757;BME280;41676;44.610;44.078;2023-02-18T13:34:53;100273.53;;;1.63;71.62
55757;BME280;41676;44.610;44.078;2023-02-18T13:39:58;100360.41;;;2.05;71.50
55757;BME280;41676;44.610;44.078;2023-02-18T13:55:28;100374.00;;;1.86;71.64
55757;BME280;41676;44.610;44.078;2023-02-18T14:00:36;100333.53;;;1.42;72.02
55757;BME280;41676;44.610;44.078;2023-02-18T14:05:40;100370.25;;;1.41;72.92
55757;BME280;41676;44.610;44.078;2023-02-18T14:10:41;100385.78;;;1.31;73.57
55757;BME280;41676;44.610;44.078;2023-02-18T14:15:52;100345.44;;;0.97;73.60
55757;BME280;41676;44.610;44.078;2023-02-18T14:21:03;100258.97;;;0.36;74.45
55757;BME280;41676;44.610;44.078;2023-02-18T14:41:40;100368.34;;;0.80;75.56
55757;BME280;41676;44.610;44.078;2023-02-18T14:57:43;100340.19;;;0.20;77.94
55757;BME280;41676;44.610;44.078;2023-02-18T15:02:51;100357.56;;;0.21;77.38
55757;BME280;41676;44.610;44.078;2023-02-18T15:08:02;100359.63;;;0.16;77.53
55757;BME280;41676;44.610;44.078;2023-02-18T15:13:08;100342.34;;;0.01;77.05
55757;BME280;41676;44.610;44.078;2023-02-18T15:23:26;100358.06;;;-0.14;77.98
55757;BME280;41676;44.610;44.078;2023-02-18T15:28:30;100261.75;;;-0.58;78.48
55757;BME280;41676;44.610;44.078;2023-02-18T15:33:31;100335.13;;;-0.09;77.88
55757;BME280;41676;44.610;44.078;2023-02-18T15:38:32;100324.03;;;-0.39;77.78
55757;BME280;41676;44.610;44.078;2023-02-18T15:43:33;100317.06;;;-0.39;78.09
55757;BME280;41676;44.610;44.078;2023-02-18T15:48:43;100293.03;;;-0.44;79.32
55757;BME280;41676;44.610;44.078;2023-02-18T15:53:48;100203.50;;;-0.99;78.51
55757;BME280;41676;44.610;44.078;2023-02-18T15:58:49;100299.50;;;-0.37;78.64
55757;BME280;41676;44.610;44.078;2023-02-18T16:03:50;100282.78;;;-0.47;78.09
55757;BME280;41676;44.610;44.078;2023-02-18T16:09:03;100195.59;;;-1.11;79.03
55757;BME280;41676;44.610;44.078;2023-02-18T16:14:25;100191.41;;;-1.14;79.26
55757;BME280;41676;44.610;44.078;2023-02-18T16:19:30;100282.22;;;-0.79;79.19
55757;BME280;41676;44.610;44.078;2023-02-18T16:24:39;100270.13;;;-0.80;80.28
55757;BME280;41676;44.610;44.078;2023-02-18T16:29:41;100269.97;;;-0.64;79.70
55757;BME280;41676;44.610;44.078;2023-02-18T16:34:43;100252.97;;;-0.57;79.96
55757;BME280;41676;44.610;44.078;2023-02-18T16:39:44;100188.41;;;-0.81;79.39
55757;BME280;41676;44.610;44.078;2023-02-18T16:44:46;100158.16;;;-0.83;79.53
55757;BME280;41676;44.610;44.078;2023-02-18T16:49:49;100215.34;;;-0.40;79.36
55757;BME280;41676;44.610;44.078;2023-02-18T16:54:51;100125.38;;;-0.87;79.46
55757;BME280;41676;44.610;44.078;2023-02-18T16:59:54;100221.63;;;-0.30;79.69
55757;BME280;41676;44.610;44.078;2023-02-18T17:04:55;100187.94;;;-0.60;80.14
55757;BME280;41676;44.610;44.078;2023-02-18T17:10:00;100215.44;;;-0.42;81.11
55757;BME280;41676;44.610;44.078;2023-02-18T17:15:01;100216.31;;;-0.29;80.83
55757;BME280;41676;44.610;44.078;2023-02-18T17:20:02;100215.91;;;-0.35;80.76
55757;BME280;41676;44.610;44.078;2023-02-18T17:25:10;100221.56;;;-0.03;81.80
55757;BME280;41676;44.610;44.078;2023-02-18T17:30:12;100183.03;;;-0.12;80.91
55757;BME280;41676;44.610;44.078;2023-02-18T17:35:22;100226.41;;;0.16;81.99
55757;BME280;41676;44.610;44.078;2023-02-18T17:40:25;100217.94;;;0.25;81.04
55757;BME280;41676;44.610;44.078;2023-02-18T17:45:30;100235.47;;;0.36;80.84
55757;BME280;41676;44.610;44.078;2023-02-18T17:50:32;100176.03;;;0.14;80.39
55757;BME280;41676;44.610;44.078;2023-02-18T17:55:34;100184.91;;;0.24;79.92
55757;BME280;41676;44.610;44.078;2023-02-18T18:00:43;100181.06;;;-0.09;81.78
55757;BME280;41676;44.610;44.078;2023-02-18T18:05:47;100166.75;;;0.10;80.63
55757;BME280;41676;44.610;44.078;2023-02-18T18:10:53;100172.28;;;-0.08;80.98
55757;BME280;41676;44.610;44.078;2023-02-18T18:15:55;100157.13;;;-0.03;81.31
55757;BME280;41676;44.610;44.078;2023-02-18T18:20:59;100117.66;;;-0.24;81.18
55757;BME280;41676;44.610;44.078;2023-02-18T18:26:00;100154.31;;;0.01;82.08
55757;BME280;41676;44.610;44.078;2023-02-18T18:31:02;100137.19;;;0.09;81.34
55757;BME280;41676;44.610;44.078;2023-02-18T18:36:03;100125.81;;;-0.03;81.20
55757;BME280;41676;44.610;44.078;2023-02-18T18:41:04;100079.66;;;-0.15;81.50
55757;BME280;41676;44.610;44.078;2023-02-18T18:46:05;100056.47;;;-0.32;82.03
55757;BME280;41676;44.610;44.078;2023-02-18T18:51:06;99950.25;;;-1.07;82.01
55757;BME280;41676;44.610;44.078;2023-02-18T18:56:11;100029.97;;;-0.64;82.66
55757;BME280;41676;44.610;44.078;2023-02-18T19:01:15;99956.59;;;-1.11;83.54
55757;BME280;41676;44.610;44.078;2023-02-18T19:06:16;100059.50;;;-0.38;83.86
55757;BME280;41676;44.610;44.078;2023-02-18T19:11:17;100038.63;;;-0.38;83.85
55757;BME280;41676;44.610;44.078;2023-02-18T19:16:28;100033.69;;;-0.30;84.93
55757;BME280;41676;44.610;44.078;2023-02-18T19:21:33;99986.13;;;-0.47;83.79
55757;BME280;41676;44.610;44.078;2023-02-18T19:26:34;100024.66;;;-0.01;83.30
55757;BME280;41676;44.610;44.078;2023-02-18T19:31:35;100023.91;;;0.10;83.45
55757;BME280;41676;44.610;44.078;2023-02-18T19:36:36;100019.00;;;0.06;83.50
55757;BME280;41676;44.610;44.078;2023-02-18T19:41:37;99988.63;;;0.05;83.23
55757;BME280;41676;44.610;44.078;2023-02-18T19:46:38;99961.31;;;-0.15;83.46
55757;BME280;41676;44.610;44.078;2023-02-18T19:51:38;99937.47;;;-0.35;83.54
55757;BME280;41676;44.610;44.078;2023-02-18T19:56:39;99941.31;;;-0.28;83.86
55757;BME280;41676;44.610;44.078;2023-02-18T20:01:40;99937.63;;;-0.25;85.11
55757;BME280;41676;44.610;44.078;2023-02-18T20:06:41;99935.38;;;-0.30;85.14
55757;BME280;41676;44.610;44.078;2023-02-18T20:11:42;99914.81;;;-0.34;84.67
55757;BME280;41676;44.610;44.078;2023-02-18T20:16:43;99946.78;;;-0.07;85.51
55757;BME280;41676;44.610;44.078;2023-02-18T20:21:45;99937.78;;;-0.03;85.38
55757;BME280;41676;44.610;44.078;2023-02-18T20:26:46;99948.06;;;0.12;86.13
55757;BME280;41676;44.610;44.078;2023-02-18T20:31:48;99946.47;;;0.22;85.68
55757;BME280;41676;44.610;44.078;2023-02-18T20:36:50;99913.63;;;0.07;85.24
55757;BME280;41676;44.610;44.078;2023-02-18T20:41:51;99915.19;;;0.09;85.26
55757;BME280;41676;44.610;44.078;2023-02-18T20:46:52;99917.94;;;0.19;85.90
55757;BME280;41676;44.610;44.078;2023-02-18T20:51:53;99936.63;;;0.26;86.22
55757;BME280;41676;44.610;44.078;2023-02-18T20:56:54;99829.28;;;-0.31;86.17
55757;BME280;41676;44.610;44.078;2023-02-18T21:01:54;99906.63;;;0.07;85.91
55757;BME280;41676;44.610;44.078;2023-02-18T21:06:55;99917.13;;;0.18;87.38
55757;BME280;41676;44.610;44.078;2023-02-18T21:11:56;99840.09;;;-0.24;87.45
55757;BME280;41676;44.610;44.078;2023-02-18T21:16:57;99843.44;;;-0.22;86.83
55757;BME280;41676;44.610;44.078;2023-02-18T21:21:58;99952.88;;;0.29;87.65
55757;BME280;41676;44.610;44.078;2023-02-18T21:26:59;99896.25;;;-0.18;87.15
55757;BME280;41676;44.610;44.078;2023-02-18T21:32:00;99943.56;;;0.14;88.00
55757;BME280;41676;44.610;44.078;2023-02-18T21:37:01;99912.34;;;0.12;87.95
55757;BME280;41676;44.610;44.078;2023-02-18T21:42:02;99930.50;;;0.14;87.71
55757;BME280;41676;44.610;44.078;2023-02-18T21:47:04;99880.50;;;-0.17;87.95
55757;BME280;41676;44.610;44.078;2023-02-18T21:52:04;99816.22;;;-0.55;88.39
55757;BME280;41676;44.610;44.078;2023-02-18T21:57:13;99912.66;;;0.08;89.13
55757;BME280;41676;44.610;44.078;2023-02-18T22:02:20;99932.22;;;0.26;88.28
55757;BME280;41676;44.610;44.078;2023-02-18T22:07:24;99922.13;;;0.21;88.45
55757;BME280;41676;44.610;44.078;2023-02-18T22:12:25;99900.50;;;0.19;87.67
55757;BME280;41676;44.610;44.078;2023-02-18T22:17:26;99845.78;;;-0.30;88.61
55757;BME280;41676;44.610;44.078;2023-02-18T22:22:29;99871.28;;;-0.10;88.85
55757;BME280;41676;44.610;44.078;2023-02-18T22:27:29;99917.66;;;0.11;89.35
55757;BME280;41676;44.610;44.078;2023-02-18T22:32:30;99899.97;;;0.03;88.72
55757;BME280;41676;44.610;44.078;2023-02-18T22:37:33;99892.75;;;0.18;89.25
55757;BME280;41676;44.610;44.078;2023-02-18T22:42:34;99858.31;;;0.13;89.09
55757;BME280;41676;44.610;44.078;2023-02-18T22:47:35;99857.09;;;0.06;88.68
55757;BME280;41676;44.610;44.078;2023-02-18T22:52:36;99859.25;;;0.12;88.81
55757;BME280;41676;44.610;44.078;2023-02-18T22:57:37;99717.31;;;-0.58;88.43
55757;BME280;41676;44.610;44.078;2023-02-18T23:02:37;99838.59;;;-0.15;89.03
55757;BME280;41676;44.610;44.078;2023-02-18T23:07:38;99851.63;;;-0.03;89.16
55757;BME280;41676;44.610;44.078;2023-02-18T23:12:39;99849.72;;;-0.01;89.19
55757;BME280;41676;44.610;44.078;2023-02-18T23:17:40;99800.69;;;-0.08;89.15
55757;BME280;41676;44.610;44.078;2023-02-18T23:22:40;99760.38;;;-0.28;88.65
55757;BME280;41676;44.610;44.078;2023-02-18T23:27:41;99794.75;;;-0.34;88.78
55757;BME280;41676;44.610;44.078;2023-02-18T23:32:42;99787.81;;;-0.47;88.97
55757;BME280;41676;44.610;44.078;2023-02-18T23:37:42;99804.59;;;-0.62;90.03
55757;BME280;41676;44.610;44.078;2023-02-18T23:43:02;99812.78;;;-0.55;90.03
55757;BME280;41676;44.610;44.078;2023-02-18T23:48:03;99779.53;;;-0.64;90.23
55757;BME280;41676;44.610;44.078;2023-02-18T23:53:03;99798.69;;;-0.29;90.77
55757;BME280;41676;44.610;44.078;2023-02-18T23:58:04;99799.19;;;-0.24;90.88
